createdAt,value
2023-01-25T00:04:56.952Z,29.65
2023-01-25T00:09:58.534Z,30.67
2023-01-25T00:15:00.160Z,32.50
2023-01-25T00:20:02.190Z,32.20
2023-01-25T00:25:04.121Z,30.92
2023-01-25T00:30:06.434Z,31.30
2023-01-25T00:35:11.997Z,33.67
2023-01-25T00:40:13.828Z,32.45
2023-01-25T00:45:15.561Z,33.92
2023-01-25T00:50:17.216Z,32.40
2023-01-25T00:55:18.890Z,32.65
2023-01-25T01:00:23.319Z,33.85
2023-01-25T01:05:24.938Z,33.47
2023-01-25T01:10:26.604Z,34.47
2023-01-25T01:15:28.195Z,33.85
2023-01-25T01:20:30.052Z,35.40
2023-01-25T01:25:32.679Z,34.13
2023-01-25T01:30:34.387Z,33.50
2023-01-25T01:35:36.206Z,34.13
2023-01-25T01:40:37.859Z,33.38
2023-01-25T01:45:52.092Z,35.75
2023-01-25T01:51:15.013Z,32.45
2023-01-25T01:56:23.769Z,33.45
2023-01-25T02:01:27.052Z,33.57
2023-01-25T02:06:39.661Z,35.40
2023-01-25T02:11:42.159Z,34.05
2023-01-25T02:16:44.131Z,31.08
2023-01-25T02:21:47.655Z,33.58
2023-01-25T02:26:49.546Z,33.05
2023-01-25T02:31:59.845Z,31.65
2023-01-25T02:37:03.008Z,32.63
2023-01-25T02:42:04.781Z,33.88
2023-01-25T02:47:07.164Z,32.38
2023-01-25T02:52:08.845Z,33.42
2023-01-25T02:57:10.930Z,33.47
2023-01-25T03:02:18.258Z,32.30
2023-01-25T03:07:20.777Z,32.30
2023-01-25T03:12:22.502Z,33.97
2023-01-25T03:17:25.039Z,32.35
2023-01-25T03:22:26.985Z,30.70
2023-01-25T03:27:30.552Z,31.35
2023-01-25T03:32:38.319Z,31.07
2023-01-25T03:37:44.084Z,31.70
2023-01-25T03:42:46.051Z,32.55
2023-01-25T03:47:48.051Z,32.28
2023-01-25T03:52:57.401Z,31.63
2023-01-25T03:57:59.387Z,30.90
2023-01-25T04:03:01.048Z,31.45
2023-01-25T04:08:03.722Z,31.45
2023-01-25T04:13:12.426Z,31.13
2023-01-25T04:18:15.124Z,31.67
2023-01-25T04:23:16.760Z,31.75
2023-01-25T04:28:19.955Z,32.22
2023-01-25T04:33:22.472Z,30.73
2023-01-25T04:38:24.360Z,30.17
2023-01-25T04:43:26.427Z,29.58
2023-01-25T04:48:33.313Z,32.10
2023-01-25T04:53:38.805Z,29.75
2023-01-25T04:58:41.853Z,30.23
2023-01-25T05:03:43.759Z,30.67
2023-01-25T05:09:09.800Z,31.00
2023-01-25T05:14:11.780Z,30.27
2023-01-25T05:19:13.529Z,30.55
2023-01-25T05:24:34.677Z,30.80
2023-01-25T05:29:41.657Z,31.58
2023-01-25T05:34:44.916Z,30.00
2023-01-25T05:39:47.387Z,33.45
2023-01-25T05:44:49.067Z,32.38
2023-01-25T05:49:51.728Z,33.60
2023-01-25T05:55:06.138Z,33.63
2023-01-25T06:00:09.823Z,32.40
2023-01-25T06:05:14.915Z,32.75
2023-01-25T06:10:17.087Z,32.53
2023-01-25T06:15:20.419Z,31.73
2023-01-25T06:20:22.583Z,34.00
2023-01-25T06:25:39.885Z,33.42
2023-01-25T06:30:41.810Z,33.47
2023-01-25T06:35:43.580Z,32.30
2023-01-25T06:40:45.140Z,33.60
2023-01-25T06:45:46.733Z,33.72
2023-01-25T06:50:56.855Z,32.78
2023-01-25T06:56:05.388Z,34.75
2023-01-25T07:01:15.407Z,34.30
2023-01-25T07:11:19.377Z,32.95
2023-01-25T07:16:21.762Z,35.70
2023-01-25T07:21:24.247Z,33.35
2023-01-25T07:26:26.238Z,32.53
2023-01-25T07:31:30.753Z,34.28
2023-01-25T07:36:32.686Z,33.30
2023-01-25T07:41:34.260Z,33.85
2023-01-25T07:46:36.459Z,34.55
2023-01-25T07:51:38.068Z,35.63
2023-01-25T07:56:40.688Z,33.80
2023-01-25T08:01:42.490Z,34.70
2023-01-25T08:06:46.298Z,35.72
2023-01-25T08:11:49.466Z,36.95
2023-01-25T08:16:51.133Z,37.38
2023-01-25T08:21:52.874Z,37.70
2023-01-25T08:26:54.644Z,35.53
2023-01-25T08:31:56.375Z,34.67
2023-01-25T08:36:58.192Z,37.08
2023-01-25T08:42:00.192Z,35.38
2023-01-25T08:47:01.929Z,36.55
2023-01-25T08:52:03.755Z,36.35
2023-01-25T08:57:06.311Z,37.78
2023-01-25T09:02:11.899Z,38.45
2023-01-25T09:07:13.555Z,37.17
2023-01-25T09:12:15.186Z,39.13
2023-01-25T09:17:17.280Z,37.95
2023-01-25T09:22:18.882Z,38.80
2023-01-25T09:27:20.809Z,38.85
2023-01-25T09:32:23.856Z,41.20
2023-01-25T09:37:28.782Z,42.90
2023-01-25T09:42:33.370Z,40.95
2023-01-25T09:47:53.839Z,40.72
2023-01-25T09:53:17.037Z,39.40
2023-01-25T09:58:26.452Z,40.67
2023-01-25T10:03:35.770Z,41.80
2023-01-25T10:08:53.341Z,40.07
2023-01-25T10:13:57.080Z,40.95
2023-01-25T10:19:23.167Z,40.55
2023-01-25T10:24:48.861Z,41.38
2023-01-25T10:29:56.016Z,41.95
2023-01-25T10:35:01.241Z,42.97
2023-01-25T10:40:14.309Z,41.63
2023-01-25T10:45:17.100Z,40.60
2023-01-25T10:50:46.608Z,39.88
2023-01-25T10:56:25.372Z,42.22
2023-01-25T11:01:27.519Z,42.30
2023-01-25T11:06:38.260Z,40.13
2023-01-25T11:11:41.414Z,43.97
2023-01-25T11:16:47.218Z,41.33
2023-01-25T11:21:53.432Z,41.53
2023-01-25T11:27:16.779Z,40.15
2023-01-25T11:32:26.848Z,41.08
2023-01-25T11:38:08.723Z,39.70
2023-01-25T11:43:43.649Z,40.08
2023-01-25T11:49:04.102Z,40.25
2023-01-25T11:54:25.351Z,40.47
2023-01-25T11:59:59.199Z,43.08
2023-01-25T12:05:29.543Z,39.00
2023-01-25T12:10:33.865Z,40.08
2023-01-25T12:16:08.974Z,40.90
2023-01-25T12:21:35.406Z,39.65
2023-01-25T12:26:56.832Z,41.00
2023-01-25T12:32:21.669Z,39.53
2023-01-25T12:37:35.516Z,39.13
2023-01-25T12:42:44.949Z,40.13
2023-01-25T12:47:53.628Z,41.07
2023-01-25T12:53:05.688Z,44.00
2023-01-25T12:58:15.267Z,42.85
2023-01-25T13:03:41.009Z,44.20
2023-01-25T13:08:49.191Z,43.53
2023-01-25T13:13:51.360Z,41.72
2023-01-25T13:18:53.201Z,39.15
2023-01-25T13:24:12.728Z,41.63
2023-01-25T13:29:36.463Z,40.55
2023-01-25T13:34:42.534Z,38.75
2023-01-25T13:39:47.755Z,39.15
2023-01-25T13:44:53.485Z,39.03
2023-01-25T13:50:18.829Z,38.55
2023-01-25T13:55:20.660Z,38.83
2023-01-25T14:00:22.636Z,37.45
2023-01-25T14:05:25.897Z,37.47
2023-01-25T14:10:28.456Z,38.42
2023-01-25T14:15:32.364Z,35.47
2023-01-25T14:20:34.168Z,34.75
2023-01-25T14:25:40.433Z,37.05
2023-01-25T14:30:43.031Z,36.50
2023-01-25T14:35:55.722Z,37.00
2023-01-25T14:41:19.623Z,34.95
2023-01-25T14:46:37.231Z,38.47
2023-01-25T14:51:49.101Z,37.60
2023-01-25T14:56:53.722Z,36.67
2023-01-25T15:01:59.188Z,37.95
2023-01-25T15:07:09.084Z,38.05
2023-01-25T15:12:28.028Z,37.53
2023-01-25T15:17:40.655Z,37.88
2023-01-25T15:22:42.355Z,34.78
2023-01-25T15:27:43.924Z,36.03
2023-01-25T15:32:46.288Z,36.60
2023-01-25T15:37:49.483Z,35.47
2023-01-25T15:42:51.178Z,36.75
2023-01-25T15:47:52.846Z,36.80
2023-01-25T15:52:54.532Z,35.78
2023-01-25T15:57:57.396Z,37.75
2023-01-25T16:02:59.011Z,35.63
2023-01-25T16:08:00.653Z,38.13
2023-01-25T16:13:02.519Z,37.55
2023-01-25T16:18:04.779Z,39.28
2023-01-25T16:23:06.454Z,35.78
2023-01-25T16:28:17.307Z,38.17
2023-01-25T16:33:24.311Z,42.33
2023-01-25T16:38:26.029Z,37.45
2023-01-25T16:43:37.988Z,34.92
2023-01-25T16:48:44.997Z,38.08
2023-01-25T16:53:48.506Z,39.13
2023-01-25T16:58:51.359Z,36.85
2023-01-25T17:03:55.263Z,37.72
2023-01-25T17:09:02.207Z,37.40
2023-01-25T17:14:06.578Z,36.90
2023-01-25T17:19:12.577Z,35.40
2023-01-25T17:24:17.226Z,37.30
2023-01-25T17:29:18.998Z,39.83
2023-01-25T17:34:21.900Z,36.25
2023-01-25T17:39:25.691Z,37.85
2023-01-25T17:44:27.327Z,35.83
2023-01-25T17:49:30.621Z,37.55
2023-01-25T17:54:32.351Z,40.42
2023-01-25T17:59:33.983Z,36.33
2023-01-25T18:04:35.849Z,37.42
2023-01-25T18:09:38.495Z,34.88
2023-01-25T18:14:40.195Z,37.95
2023-01-25T18:19:44.271Z,37.38
2023-01-25T18:24:46.514Z,39.22
2023-01-25T18:29:48.067Z,39.30
2023-01-25T18:34:49.920Z,40.20
2023-01-25T18:39:54.061Z,41.55
2023-01-25T18:44:55.642Z,44.22
2023-01-25T18:49:57.398Z,42.03
2023-01-25T18:54:59.109Z,42.53
2023-01-25T19:00:00.863Z,44.25
2023-01-25T19:05:02.526Z,44.00
2023-01-25T19:10:04.369Z,44.28
2023-01-25T19:15:06.772Z,45.08
2023-01-25T19:20:09.126Z,46.85
2023-01-25T19:25:11.205Z,44.83
2023-01-25T19:30:13.336Z,46.40
2023-01-25T19:35:15.097Z,47.80
2023-01-25T19:40:18.893Z,48.67
2023-01-25T19:45:20.427Z,49.92
2023-01-25T19:50:22.117Z,50.13
2023-01-25T19:55:23.843Z,49.15
2023-01-25T20:00:25.459Z,50.20
2023-01-25T20:05:27.101Z,47.50
2023-01-25T20:10:30.214Z,52.72
2023-01-25T20:15:32.551Z,49.97
2023-01-25T20:20:34.372Z,54.78
2023-01-25T20:25:36.028Z,54.63
2023-01-25T20:30:37.683Z,54.03
2023-01-25T20:35:39.357Z,54.17
2023-01-25T20:40:40.983Z,55.80
2023-01-25T20:45:42.646Z,56.17
2023-01-25T20:50:44.391Z,56.65
2023-01-25T20:55:56.232Z,58.75
2023-01-25T21:00:58.073Z,56.22
2023-01-25T21:06:00.564Z,57.25
2023-01-25T21:11:02.420Z,55.20
2023-01-25T21:16:11.558Z,56.38
2023-01-25T21:21:15.535Z,53.28
2023-01-25T21:26:28.455Z,52.65
2023-01-25T21:31:38.424Z,52.53
2023-01-25T21:36:40.437Z,52.42
2023-01-25T21:41:42.086Z,51.38
2023-01-25T21:46:49.259Z,50.15
2023-01-25T21:51:55.974Z,48.58
2023-01-25T21:56:59.266Z,47.50
2023-01-25T22:02:00.798Z,46.42
2023-01-25T22:07:03.295Z,42.50
2023-01-25T22:12:04.980Z,43.00
2023-01-25T22:17:06.614Z,42.53
2023-01-25T22:22:08.190Z,38.50
2023-01-25T22:27:31.979Z,38.33
2023-01-25T22:32:33.761Z,35.78
2023-01-25T22:37:37.957Z,33.67
2023-01-25T22:42:39.544Z,32.58
2023-01-25T22:47:43.041Z,28.77
2023-01-25T22:52:44.578Z,26.50
2023-01-25T22:57:46.184Z,25.73
2023-01-25T23:02:47.744Z,25.77
2023-01-25T23:07:49.358Z,24.35
2023-01-25T23:12:53.437Z,22.98
2023-01-25T23:18:13.480Z,22.23
2023-01-25T23:23:16.888Z,21.25
2023-01-25T23:28:18.548Z,20.35
2023-01-25T23:33:20.203Z,20.48
2023-01-25T23:38:21.807Z,19.58
2023-01-25T23:43:23.361Z,20.35
2023-01-25T23:48:25.074Z,20.33
2023-01-25T23:53:27.605Z,19.48
2023-01-25T23:58:29.744Z,19.60
